• Join FlightAware (Why Join?)
  • Login
  • US Flag 
06:16PM EDT


 

Airport Tracker/Info


-or-


 

Live Flight TrackerFlight Track Log ✈ KAP66 ✈ 28-Aug-2013 ✈ KEWB - KACK

Flight Track Log - Related Links

Times and Time Zones

All times are in EDT time to prevent confusion due to time zone crossing. See the KAP66 flight status page for this flight to view local times or setup timezone preferences in your user account.

Time Position Orientation Groundspeed Altitude Reporting Facility
EDT Latitude Longitude Course Direction KTS MPH feet Rate Location/Type
11:23AM 41.6631 -70.9422 124° Southeast 84 97 500  Level Boston Center
11:25AM 41.6415 -70.8992 124° Southeast  Level FlightAware Approximate
11:32AM 41.5064 -70.6094 121° Southeast  Level FlightAware Approximate
11:33AM 41.4873 -70.5664 121° Southeast  Level FlightAware Approximate
11:34AM 41.4682 -70.5234 121° Southeast  Level FlightAware Approximate
11:35AM 41.4490 -70.4804 121° Southeast  Level FlightAware Approximate
11:36AM 41.4299 -70.4374 121° Southeast  Level FlightAware Approximate
11:37AM 41.4107 -70.3945 121° Southeast  Level FlightAware Approximate
11:38AM 41.3915 -70.3515 121° Southeast  Level FlightAware Approximate
11:39AM 41.3690 -70.3118 132° Southeast  Level FlightAware Approximate
11:40AM 41.3455 -70.2732 121° Southeast  Level FlightAware Approximate
11:41AM 41.3264 -70.2302 121° Southeast  Level FlightAware Approximate
11:42AM 41.3073 -70.1873 121° Southeast  Level FlightAware Approximate
11:43AM 41.2882 -70.1443 121° Southeast  Level FlightAware Approximate
11:44AM 41.2702 -70.1006 118° Southeast  Level FlightAware Approximate
11:45AM 41.2526 -70.0566 118° Southeast  Level FlightAware Approximate
11:46AM 41.2500 -70.0500 118° Southeast  Level FlightAware Approximate
11:47AM 41.2531 -70.0603 118° Southeast  Level Estimated
11:48AM 41.2531 -70.0603 118° Southeast  Level Estimated
11:49AM 41.2531 -70.0603 118° Southeast  Level Estimated
11:50AM 41.2531 -70.0603 118° Southeast  Level Estimated
11:51AM 41.2531 -70.0603 118° Southeast  Level Estimated
11:52AM 41.2531 -70.0603 118° Southeast  Level Estimated
11:53AM 41.2531 -70.0603 118° Southeast  Level Estimated
11:54AM 41.2531 -70.0603 118° Southeast  Level Estimated
11:55AM 41.2531 -70.0603 118° Southeast  Level Estimated
11:56AM 41.2531 -70.0603 118° Southeast  Level Estimated
11:57AM 41.2531 -70.0603 118° Southeast  Level Estimated
11:58AM 41.2531 -70.0603 118° Southeast  Level Estimated
11:59AM 41.2531 -70.0603 118° Southeast  Level Estimated
12:00PM 41.2531 -70.0603 118° Southeast  Level Estimated